Green Castle, Missouri
Current Conditions -  °F | °C
As of 6:55 PM on Friday 28 Nov 2014 (Local Time) from KIRK Reporting Station
Clear Clear  
Wind Chill: 34°   Ceiling: Unl
Heat Index: 39°   Visibility: 10mi
Dew Point: 32°   Wind: 7mph
Humidity: 76%   Direction: 150°SSE
Pressure: 29.8"   Gusts: NA
Location:  40.26°N, 92.88°W
Report Text: KIRK 290055Z AUTO 15006KT 10SM CLR 04/00 A2980 RMK AO2 SLP104 T00390000
Loading
Personal Weather Stations






























Interactive Weather Map New forecast layout! Learn more

10-Day Weather Forecast

Advertisements
Track Severe Weather on mobile